sensor_id;sensor_type;location;lat;lon;timestamp;pressure;altitude;pressure_sealevel;temperature;humidity
9059;BME280;4564;42.034;25.834;2023-07-08T00:01:26;100030.13;;;21.18;100.00
9059;BME280;4564;42.034;25.834;2023-07-08T00:03:52;100031.25;;;21.22;100.00
9059;BME280;4564;42.034;25.834;2023-07-08T00:06:20;100033.50;;;21.25;100.00
9059;BME280;4564;42.034;25.834;2023-07-08T00:08:47;100033.47;;;21.20;100.00
9059;BME280;4564;42.034;25.834;2023-07-08T00:11:14;100031.16;;;21.12;100.00
9059;BME280;4564;42.034;25.834;2023-07-08T00:13:42;100036.13;;;21.10;100.00
9059;BME280;4564;42.034;25.834;2023-07-08T00:16:10;100038.22;;;20.98;100.00
9059;BME280;4564;42.034;25.834;2023-07-08T00:18:37;100043.94;;;20.91;100.00
9059;BME280;4564;42.034;25.834;2023-07-08T00:21:06;100043.03;;;20.86;100.00
9059;BME280;4564;42.034;25.834;2023-07-08T00:23:34;100040.53;;;20.84;100.00
9059;BME280;4564;42.034;25.834;2023-07-08T00:26:01;100025.66;;;20.85;100.00
9059;BME280;4564;42.034;25.834;2023-07-08T00:28:28;100022.59;;;20.82;100.00
9059;BME280;4564;42.034;25.834;2023-07-08T00:30:56;100020.34;;;20.79;100.00
9059;BME280;4564;42.034;25.834;2023-07-08T00:33:22;100023.63;;;20.76;100.00
9059;BME280;4564;42.034;25.834;2023-07-08T00:35:49;100025.25;;;20.72;100.00
9059;BME280;4564;42.034;25.834;2023-07-08T00:38:18;100022.47;;;20.67;100.00
9059;BME280;4564;42.034;25.834;2023-07-08T00:40:49;100022.47;;;20.67;100.00
9059;BME280;4564;42.034;25.834;2023-07-08T00:43:16;100012.25;;;20.67;100.00
9059;BME280;4564;42.034;25.834;2023-07-08T00:45:44;100016.94;;;20.67;100.00
9059;BME280;4564;42.034;25.834;2023-07-08T00:48:18;100017.97;;;20.61;100.00
9059;BME280;4564;42.034;25.834;2023-07-08T00:50:45;100015.16;;;20.56;100.00
9059;BME280;4564;42.034;25.834;2023-07-08T00:53:22;100026.44;;;20.54;100.00
9059;BME280;4564;42.034;25.834;2023-07-08T00:55:48;100025.59;;;20.53;100.00
9059;BME280;4564;42.034;25.834;2023-07-08T00:58:15;100027.22;;;20.49;100.00
9059;BME280;4564;42.034;25.834;2023-07-08T01:00:43;100017.22;;;20.43;100.00
9059;BME280;4564;42.034;25.834;2023-07-08T01:03:09;100023.03;;;20.47;100.00
9059;BME280;4564;42.034;25.834;2023-07-08T01:05:37;100028.25;;;20.43;100.00
9059;BME280;4564;42.034;25.834;2023-07-08T01:08:04;100021.25;;;20.36;100.00
9059;BME280;4564;42.034;25.834;2023-07-08T01:10:32;100028.16;;;20.33;100.00
9059;BME280;4564;42.034;25.834;2023-07-08T01:13:00;100037.56;;;20.37;100.00
9059;BME280;4564;42.034;25.834;2023-07-08T01:15:31;100033.47;;;20.40;100.00
9059;BME280;4564;42.034;25.834;2023-07-08T01:17:59;100040.13;;;20.44;100.00
9059;BME280;4564;42.034;25.834;2023-07-08T01:20:25;100035.75;;;20.48;100.00
9059;BME280;4564;42.034;25.834;2023-07-08T01:22:53;100037.16;;;20.50;100.00
9059;BME280;4564;42.034;25.834;2023-07-08T01:25:20;100035.25;;;20.51;100.00
9059;BME280;4564;42.034;25.834;2023-07-08T01:27:48;100031.72;;;20.56;100.00
9059;BME280;4564;42.034;25.834;2023-07-08T01:30:15;100024.00;;;20.58;100.00
9059;BME280;4564;42.034;25.834;2023-07-08T01:32:45;100032.25;;;20.58;100.00
9059;BME280;4564;42.034;25.834;2023-07-08T01:35:12;100025.16;;;20.62;100.00
9059;BME280;4564;42.034;25.834;2023-07-08T01:37:39;100030.16;;;20.65;100.00
9059;BME280;4564;42.034;25.834;2023-07-08T01:40:22;100021.91;;;20.70;100.00
9059;BME280;4564;42.034;25.834;2023-07-08T01:42:50;100029.22;;;20.81;100.00
9059;BME280;4564;42.034;25.834;2023-07-08T01:45:17;100026.25;;;20.87;100.00
9059;BME280;4564;42.034;25.834;2023-07-08T01:47:44;100030.44;;;20.95;100.00
9059;BME280;4564;42.034;25.834;2023-07-08T01:50:12;100031.03;;;20.97;100.00
9059;BME280;4564;42.034;25.834;2023-07-08T01:52:39;100030.81;;;21.04;100.00
9059;BME280;4564;42.034;25.834;2023-07-08T01:55:06;100037.16;;;21.04;100.00
9059;BME280;4564;42.034;25.834;2023-07-08T01:57:35;100032.72;;;21.03;100.00
9059;BME280;4564;42.034;25.834;2023-07-08T02:00:01;100033.31;;;21.05;100.00
9059;BME280;4564;42.034;25.834;2023-07-08T02:02:28;100037.22;;;21.09;100.00
9059;BME280;4564;42.034;25.834;2023-07-08T02:04:54;100036.66;;;21.12;100.00
9059;BME280;4564;42.034;25.834;2023-07-08T02:07:21;100033.19;;;21.22;100.00
9059;BME280;4564;42.034;25.834;2023-07-08T02:09:48;100039.06;;;21.30;99.74
9059;BME280;4564;42.034;25.834;2023-07-08T02:12:14;100029.16;;;21.34;99.20
9059;BME280;4564;42.034;25.834;2023-07-08T02:14:42;100035.81;;;21.39;99.45
9059;BME280;4564;42.034;25.834;2023-07-08T02:17:09;100039.16;;;21.41;98.92
9059;BME280;4564;42.034;25.834;2023-07-08T02:19:35;100034.75;;;21.45;98.77
9059;BME280;4564;42.034;25.834;2023-07-08T02:22:02;100034.75;;;21.45;99.54
9059;BME280;4564;42.034;25.834;2023-07-08T02:24:29;100038.38;;;21.50;98.53
9059;BME280;4564;42.034;25.834;2023-07-08T02:26:56;100051.09;;;21.51;98.52
9059;BME280;4564;42.034;25.834;2023-07-08T02:29:23;100059.59;;;21.45;99.40
9059;BME280;4564;42.034;25.834;2023-07-08T02:31:50;100061.25;;;21.41;99.91
9059;BME280;4564;42.034;25.834;2023-07-08T02:34:17;100065.13;;;21.45;98.98
9059;BME280;4564;42.034;25.834;2023-07-08T02:36:44;100060.41;;;21.40;99.47
9059;BME280;4564;42.034;25.834;2023-07-08T02:39:10;100074.75;;;21.37;100.00
9059;BME280;4564;42.034;25.834;2023-07-08T02:41:37;100073.34;;;21.34;100.00
9059;BME280;4564;42.034;25.834;2023-07-08T02:44:04;100076.13;;;21.40;100.00
9059;BME280;4564;42.034;25.834;2023-07-08T02:46:30;100073.38;;;21.40;100.00
9059;BME280;4564;42.034;25.834;2023-07-08T02:48:58;100070.97;;;21.48;100.00
9059;BME280;4564;42.034;25.834;2023-07-08T02:51:25;100072.34;;;21.51;100.00
9059;BME280;4564;42.034;25.834;2023-07-08T02:53:51;100070.09;;;21.43;100.00
9059;BME280;4564;42.034;25.834;2023-07-08T02:56:18;100062.88;;;21.37;100.00
9059;BME280;4564;42.034;25.834;2023-07-08T02:58:46;100051.81;;;21.37;100.00
9059;BME280;4564;42.034;25.834;2023-07-08T03:01:12;100062.28;;;21.34;100.00
9059;BME280;4564;42.034;25.834;2023-07-08T03:03:43;100064.47;;;21.32;100.00
9059;BME280;4564;42.034;25.834;2023-07-08T03:06:11;100062.28;;;21.34;100.00
9059;BME280;4564;42.034;25.834;2023-07-08T03:08:38;100060.41;;;21.40;100.00
9059;BME280;4564;42.034;25.834;2023-07-08T03:11:05;100073.63;;;21.38;100.00
9059;BME280;4564;42.034;25.834;2023-07-08T03:13:32;100079.16;;;21.38;100.00
9059;BME280;4564;42.034;25.834;2023-07-08T03:16:00;100087.19;;;21.40;100.00
9059;BME280;4564;42.034;25.834;2023-07-08T03:18:27;100083.88;;;21.38;100.00
9059;BME280;4564;42.034;25.834;2023-07-08T03:20:54;100086.03;;;21.35;100.00
9059;BME280;4564;42.034;25.834;2023-07-08T03:23:23;100090.44;;;21.31;100.00
9059;BME280;4564;42.034;25.834;2023-07-08T03:25:50;100099.28;;;21.33;100.00
9059;BME280;4564;42.034;25.834;2023-07-08T03:28:17;100094.03;;;21.32;100.00
9059;BME280;4564;42.034;25.834;2023-07-08T03:30:44;100087.75;;;21.42;100.00
9059;BME280;4564;42.034;25.834;2023-07-08T03:33:11;100093.06;;;21.48;99.53
9059;BME280;4564;42.034;25.834;2023-07-08T03:35:38;100095.06;;;21.58;99.67
9059;BME280;4564;42.034;25.834;2023-07-08T03:38:04;100094.59;;;21.71;97.85
9059;BME280;4564;42.034;25.834;2023-07-08T03:40:32;100094.38;;;21.77;97.17
9059;BME280;4564;42.034;25.834;2023-07-08T03:42:59;100090.25;;;21.80;98.12
9059;BME280;4564;42.034;25.834;2023-07-08T03:45:26;100096.34;;;21.82;95.90
9059;BME280;4564;42.034;25.834;2023-07-08T03:47:52;100091.16;;;21.91;96.07
9059;BME280;4564;42.034;25.834;2023-07-08T03:50:19;100098.91;;;21.94;96.01
9059;BME280;4564;42.034;25.834;2023-07-08T03:52:46;100097.59;;;21.96;95.31
9059;BME280;4564;42.034;25.834;2023-07-08T03:55:13;100103.94;;;21.97;95.05
9059;BME280;4564;42.034;25.834;2023-07-08T03:57:41;100105.06;;;22.01;94.51
9059;BME280;4564;42.034;25.834;2023-07-08T04:00:09;100103.19;;;22.06;95.31
9059;BME280;4564;42.034;25.834;2023-07-08T04:02:37;100107.06;;;22.10;94.85
9059;BME280;4564;42.034;25.834;2023-07-08T04:05:04;100106.50;;;22.13;93.87
9059;BME280;4564;42.034;25.834;2023-07-08T04:07:31;100112.66;;;22.26;94.90
9059;BME280;4564;42.034;25.834;2023-07-08T04:09:57;100112.16;;;22.34;94.22
9059;BME280;4564;42.034;25.834;2023-07-08T04:12:24;100113.94;;;22.55;93.55
9059;BME280;4564;42.034;25.834;2023-07-08T04:14:52;100119.00;;;22.73;93.47
9059;BME280;4564;42.034;25.834;2023-07-08T04:17:18;100111.28;;;22.85;92.38
9059;BME280;4564;42.034;25.834;2023-07-08T04:19:49;100110.78;;;22.98;92.38
9059;BME280;4564;42.034;25.834;2023-07-08T04:22:15;100108.00;;;22.98;90.51
9059;BME280;4564;42.034;25.834;2023-07-08T04:24:42;100112.97;;;22.96;91.01
9059;BME280;4564;42.034;25.834;2023-07-08T04:27:11;100111.31;;;23.06;90.02
9059;BME280;4564;42.034;25.834;2023-07-08T04:29:39;100105.53;;;23.17;90.27
9059;BME280;4564;42.034;25.834;2023-07-08T04:32:07;100108.88;;;23.44;87.62
9059;BME280;4564;42.034;25.834;2023-07-08T04:34:34;100106.38;;;23.38;88.44
9059;BME280;4564;42.034;25.834;2023-07-08T04:37:00;100115.56;;;23.49;88.43
9059;BME280;4564;42.034;25.834;2023-07-08T04:39:29;100108.91;;;23.50;85.68
9059;BME280;4564;42.034;25.834;2023-07-08T04:41:56;100108.09;;;23.64;86.63
9059;BME280;4564;42.034;25.834;2023-07-08T04:44:23;100104.75;;;23.77;85.14
9059;BME280;4564;42.034;25.834;2023-07-08T04:46:50;100104.75;;;23.82;84.59
9059;BME280;4564;42.034;25.834;2023-07-08T04:49:19;100100.28;;;24.07;84.28
9059;BME280;4564;42.034;25.834;2023-07-08T04:51:46;100100.25;;;24.27;83.22
9059;BME280;4564;42.034;25.834;2023-07-08T04:54:13;100091.75;;;24.67;81.33
9059;BME280;4564;42.034;25.834;2023-07-08T04:56:40;100078.34;;;24.90;79.32
9059;BME280;4564;42.034;25.834;2023-07-08T04:59:07;100085.50;;;25.01;79.20
9059;BME280;4564;42.034;25.834;2023-07-08T05:01:35;100090.56;;;24.89;78.28
9059;BME280;4564;42.034;25.834;2023-07-08T05:04:01;100097.78;;;24.90;79.46
9059;BME280;4564;42.034;25.834;2023-07-08T05:06:29;100104.44;;;24.84;79.20
9059;BME280;4564;42.034;25.834;2023-07-08T05:08:56;100109.44;;;24.87;80.45
9059;BME280;4564;42.034;25.834;2023-07-08T05:11:22;100116.31;;;24.99;80.70
9059;BME280;4564;42.034;25.834;2023-07-08T05:13:49;100124.28;;;25.16;80.07
9059;BME280;4564;42.034;25.834;2023-07-08T05:16:16;100128.88;;;25.36;77.43
9059;BME280;4564;42.034;25.834;2023-07-08T05:18:44;100125.94;;;25.61;77.99
9059;BME280;4564;42.034;25.834;2023-07-08T05:21:10;100135.97;;;25.57;78.48
9059;BME280;4564;42.034;25.834;2023-07-08T05:23:38;100146.03;;;25.82;78.79
9059;BME280;4564;42.034;25.834;2023-07-08T05:26:06;100147.88;;;26.25;77.30
9059;BME280;4564;42.034;25.834;2023-07-08T05:28:33;100154.03;;;28.20;69.50
9059;BME280;4564;42.034;25.834;2023-07-08T05:30:59;100161.91;;;30.61;61.42
9059;BME280;4564;42.034;25.834;2023-07-08T05:33:27;100171.22;;;32.97;53.20
9059;BME280;4564;42.034;25.834;2023-07-08T05:35:54;100170.09;;;34.35;47.74
9059;BME280;4564;42.034;25.834;2023-07-08T05:38:20;100193.47;;;35.81;43.17
9059;BME280;4564;42.034;25.834;2023-07-08T05:40:49;100194.75;;;36.55;39.98
9059;BME280;4564;42.034;25.834;2023-07-08T05:43:16;100191.50;;;36.84;38.80
9059;BME280;4564;42.034;25.834;2023-07-08T05:45:43;100188.78;;;37.38;36.24
9059;BME280;4564;42.034;25.834;2023-07-08T05:48:10;100205.03;;;37.76;35.33
9059;BME280;4564;42.034;25.834;2023-07-08T05:50:36;100198.72;;;38.44;33.43
9059;BME280;4564;42.034;25.834;2023-07-08T05:53:03;100192.06;;;38.14;32.68
9059;BME280;4564;42.034;25.834;2023-07-08T05:55:30;100186.38;;;37.06;35.35
9059;BME280;4564;42.034;25.834;2023-07-08T05:57:59;100188.34;;;35.99;35.80
9059;BME280;4564;42.034;25.834;2023-07-08T06:00:25;100187.91;;;34.72;38.16
9059;BME280;4564;42.034;25.834;2023-07-08T06:02:52;100177.34;;;33.28;42.25
9059;BME280;4564;42.034;25.834;2023-07-08T06:05:18;100177.44;;;32.18;44.96
9059;BME280;4564;42.034;25.834;2023-07-08T06:07:45;100173.50;;;31.42;46.54
9059;BME280;4564;42.034;25.834;2023-07-08T06:10:12;100177.47;;;30.84;48.17
9059;BME280;4564;42.034;25.834;2023-07-08T06:12:38;100173.22;;;30.25;51.08
9059;BME280;4564;42.034;25.834;2023-07-08T06:15:07;100174.09;;;30.03;51.38
9059;BME280;4564;42.034;25.834;2023-07-08T06:17:33;100171.09;;;30.22;53.24
9059;BME280;4564;42.034;25.834;2023-07-08T06:20:00;100187.53;;;32.19;46.89
9059;BME280;4564;42.034;25.834;2023-07-08T06:22:27;100176.47;;;34.11;38.57
9059;BME280;4564;42.034;25.834;2023-07-08T06:24:54;100190.94;;;33.68;41.08
9059;BME280;4564;42.034;25.834;2023-07-08T06:27:20;100185.91;;;34.72;38.65
9059;BME280;4564;42.034;25.834;2023-07-08T06:29:47;100185.69;;;35.38;35.89
9059;BME280;4564;42.034;25.834;2023-07-08T06:32:15;100194.91;;;36.31;35.01
9059;BME280;4564;42.034;25.834;2023-07-08T06:34:42;100196.72;;;37.14;32.40
9059;BME280;4564;42.034;25.834;2023-07-08T06:37:08;100197.22;;;37.54;31.02
9059;BME280;4564;42.034;25.834;2023-07-08T06:39:35;100205.94;;;37.80;32.81
9059;BME280;4564;42.034;25.834;2023-07-08T06:42:02;100200.03;;;37.35;32.03
9059;BME280;4564;42.034;25.834;2023-07-08T06:44:29;100201.91;;;37.62;32.42
9059;BME280;4564;42.034;25.834;2023-07-08T06:46:55;100202.91;;;36.88;31.19
9059;BME280;4564;42.034;25.834;2023-07-08T06:49:23;100204.75;;;35.81;32.63
9059;BME280;4564;42.034;25.834;2023-07-08T06:51:50;100204.16;;;36.43;31.73
9059;BME280;4564;42.034;25.834;2023-07-08T06:54:16;100204.09;;;37.03;30.73
9059;BME280;4564;42.034;25.834;2023-07-08T06:56:43;100202.78;;;38.89;29.91
9059;BME280;4564;42.034;25.834;2023-07-08T06:59:10;100210.69;;;38.34;29.65
9059;BME280;4564;42.034;25.834;2023-07-08T07:01:36;100216.81;;;37.98;29.70
9059;BME280;4564;42.034;25.834;2023-07-08T07:04:03;100227.44;;;36.99;31.29
9059;BME280;4564;42.034;25.834;2023-07-08T07:06:31;100219.75;;;34.72;33.71
9059;BME280;4564;42.034;25.834;2023-07-08T07:08:58;100222.75;;;33.10;35.67
9059;BME280;4564;42.034;25.834;2023-07-08T07:11:25;100220.09;;;31.94;38.62
9059;BME280;4564;42.034;25.834;2023-07-08T07:13:51;100223.47;;;31.31;42.00
9059;BME280;4564;42.034;25.834;2023-07-08T07:16:18;100230.06;;;30.48;43.18
9059;BME280;4564;42.034;25.834;2023-07-08T07:18:45;100225.47;;;29.85;46.60
9059;BME280;4564;42.034;25.834;2023-07-08T07:21:11;100227.13;;;29.50;48.44
9059;BME280;4564;42.034;25.834;2023-07-08T07:23:39;100232.75;;;29.36;48.50
9059;BME280;4564;42.034;25.834;2023-07-08T07:26:06;100234.16;;;28.65;49.89
9059;BME280;4564;42.034;25.834;2023-07-08T07:28:33;100240.94;;;28.32;52.14
9059;BME280;4564;42.034;25.834;2023-07-08T07:31:00;100242.47;;;28.06;53.82
9059;BME280;4564;42.034;25.834;2023-07-08T07:33:26;100248.09;;;27.68;53.01
9059;BME280;4564;42.034;25.834;2023-07-08T07:35:53;100241.06;;;27.28;55.39
9059;BME280;4564;42.034;25.834;2023-07-08T07:38:20;100235.84;;;27.03;56.74
9059;BME280;4564;42.034;25.834;2023-07-08T07:40:48;100234.13;;;26.78;58.38
9059;BME280;4564;42.034;25.834;2023-07-08T07:43:14;100235.56;;;27.04;60.56
9059;BME280;4564;42.034;25.834;2023-07-08T07:45:41;100229.31;;;27.55;59.84
9059;BME280;4564;42.034;25.834;2023-07-08T07:48:07;100232.38;;;28.42;58.13
9059;BME280;4564;42.034;25.834;2023-07-08T07:50:34;100236.09;;;29.96;53.80
9059;BME280;4564;42.034;25.834;2023-07-08T07:53:01;100237.59;;;31.65;46.21
9059;BME280;4564;42.034;25.834;2023-07-08T07:55:27;100233.47;;;31.97;44.72
9059;BME280;4564;42.034;25.834;2023-07-08T07:57:56;100228.75;;;31.33;47.54
9059;BME280;4564;42.034;25.834;2023-07-08T08:00:22;100231.63;;;31.58;46.64
9059;BME280;4564;42.034;25.834;2023-07-08T08:02:49;100233.41;;;31.46;45.19
9059;BME280;4564;42.034;25.834;2023-07-08T08:05:15;100231.00;;;31.87;45.80
9059;BME280;4564;42.034;25.834;2023-07-08T08:07:43;100241.72;;;31.85;46.88
9059;BME280;4564;42.034;25.834;2023-07-08T08:10:09;100243.72;;;31.76;46.50
9059;BME280;4564;42.034;25.834;2023-07-08T08:12:36;100250.16;;;31.68;45.46
9059;BME280;4564;42.034;25.834;2023-07-08T08:15:05;100246.72;;;31.14;47.17
9059;BME280;4564;42.034;25.834;2023-07-08T08:17:31;100249.34;;;30.80;47.73
9059;BME280;4564;42.034;25.834;2023-07-08T08:19:58;100243.09;;;30.52;49.09
9059;BME280;4564;42.034;25.834;2023-07-08T08:22:24;100243.75;;;30.80;49.19
9059;BME280;4564;42.034;25.834;2023-07-08T08:24:51;100240.66;;;31.30;48.32
9059;BME280;4564;42.034;25.834;2023-07-08T08:27:18;100241.31;;;31.35;46.35
9059;BME280;4564;42.034;25.834;2023-07-08T08:29:44;100233.50;;;31.06;46.12
9059;BME280;4564;42.034;25.834;2023-07-08T08:32:12;100229.34;;;30.64;47.34
9059;BME280;4564;42.034;25.834;2023-07-08T08:34:39;100228.88;;;30.71;48.46
9059;BME280;4564;42.034;25.834;2023-07-08T08:37:06;100222.84;;;30.86;47.64
9059;BME280;4564;42.034;25.834;2023-07-08T08:39:32;100228.38;;;30.77;44.72
9059;BME280;4564;42.034;25.834;2023-07-08T08:41:59;100232.50;;;31.11;48.03
9059;BME280;4564;42.034;25.834;2023-07-08T08:44:28;100228.81;;;31.58;45.24
9059;BME280;4564;42.034;25.834;2023-07-08T08:46:58;100237.44;;;32.14;46.46
9059;BME280;4564;42.034;25.834;2023-07-08T08:49:29;100230.47;;;32.37;42.35
9059;BME280;4564;42.034;25.834;2023-07-08T08:51:57;100237.13;;;32.87;43.34
9059;BME280;4564;42.034;25.834;2023-07-08T08:54:24;100235.78;;;32.85;41.83
9059;BME280;4564;42.034;25.834;2023-07-08T08:56:54;100238.56;;;32.94;41.07
9059;BME280;4564;42.034;25.834;2023-07-08T08:59:24;100239.75;;;32.93;41.85
9059;BME280;4564;42.034;25.834;2023-07-08T09:01:54;100233.81;;;32.85;42.84
9059;BME280;4564;42.034;25.834;2023-07-08T09:04:21;100230.31;;;33.26;41.90
9059;BME280;4564;42.034;25.834;2023-07-08T09:06:51;100234.78;;;33.78;40.62
9059;BME280;4564;42.034;25.834;2023-07-08T09:09:27;100224.03;;;33.92;39.51
9059;BME280;4564;42.034;25.834;2023-07-08T09:11:57;100215.66;;;34.04;40.60
9059;BME280;4564;42.034;25.834;2023-07-08T09:14:26;100219.75;;;34.06;42.28
9059;BME280;4564;42.034;25.834;2023-07-08T09:16:56;100219.06;;;34.30;40.34
9059;BME280;4564;42.034;25.834;2023-07-08T09:19:25;100220.50;;;34.36;39.69
9059;BME280;4564;42.034;25.834;2023-07-08T09:21:57;100215.22;;;34.14;39.64
9059;BME280;4564;42.034;25.834;2023-07-08T09:24:27;100218.97;;;33.85;39.96
9059;BME280;4564;42.034;25.834;2023-07-08T09:26:55;100218.47;;;33.62;40.42
9059;BME280;4564;42.034;25.834;2023-07-08T09:29:25;100210.28;;;33.49;41.82
9059;BME280;4564;42.034;25.834;2023-07-08T09:31:51;100206.38;;;33.41;41.59
9059;BME280;4564;42.034;25.834;2023-07-08T09:34:20;100210.25;;;33.57;41.24
9059;BME280;4564;42.034;25.834;2023-07-08T09:36:48;100215.06;;;33.27;41.94
9059;BME280;4564;42.034;25.834;2023-07-08T09:39:16;100202.41;;;33.13;41.11
9059;BME280;4564;42.034;25.834;2023-07-08T09:41:44;100203.66;;;32.39;41.86
9059;BME280;4564;42.034;25.834;2023-07-08T09:44:13;100191.03;;;32.16;42.98
9059;BME280;4564;42.034;25.834;2023-07-08T09:46:41;100187.84;;;32.18;45.66
9059;BME280;4564;42.034;25.834;2023-07-08T09:49:09;100197.09;;;32.18;42.34
9059;BME280;4564;42.034;25.834;2023-07-08T09:51:36;100203.75;;;31.88;43.23
9059;BME280;4564;42.034;25.834;2023-07-08T09:54:02;100199.06;;;31.32;44.49
9059;BME280;4564;42.034;25.834;2023-07-08T09:56:30;100204.22;;;30.90;46.27
9059;BME280;4564;42.034;25.834;2023-07-08T09:58:57;100205.97;;;30.47;45.69
9059;BME280;4564;42.034;25.834;2023-07-08T10:01:24;100208.91;;;30.11;47.67
9059;BME280;4564;42.034;25.834;2023-07-08T10:03:51;100214.63;;;29.70;51.83
9059;BME280;4564;42.034;25.834;2023-07-08T10:06:25;100243.25;;;29.67;55.15
9059;BME280;4564;42.034;25.834;2023-07-08T10:08:53;100256.03;;;29.04;64.62
9059;BME280;4564;42.034;25.834;2023-07-08T10:11:26;100220.59;;;28.13;67.20
9059;BME280;4564;42.034;25.834;2023-07-08T10:13:55;100214.66;;;27.26;64.18
9059;BME280;4564;42.034;25.834;2023-07-08T10:16:23;100212.94;;;26.82;68.59
9059;BME280;4564;42.034;25.834;2023-07-08T10:18:51;100195.63;;;26.85;67.38
9059;BME280;4564;42.034;25.834;2023-07-08T10:21:22;100197.09;;;26.78;68.29
9059;BME280;4564;42.034;25.834;2023-07-08T10:23:54;100203.47;;;26.59;69.82
9059;BME280;4564;42.034;25.834;2023-07-08T10:26:25;100204.56;;;26.58;69.85
9059;BME280;4564;42.034;25.834;2023-07-08T10:28:56;100196.38;;;26.72;72.10
9059;BME280;4564;42.034;25.834;2023-07-08T10:31:26;100198.31;;;26.95;70.91
9059;BME280;4564;42.034;25.834;2023-07-08T10:33:57;100193.78;;;26.99;70.70
9059;BME280;4564;42.034;25.834;2023-07-08T10:36:28;100185.41;;;27.23;69.21
9059;BME280;4564;42.034;25.834;2023-07-08T10:39:02;100190.03;;;27.70;69.08
9059;BME280;4564;42.034;25.834;2023-07-08T10:41:36;100177.94;;;28.12;67.97
9059;BME280;4564;42.034;25.834;2023-07-08T10:44:07;100173.53;;;28.52;66.66
9059;BME280;4564;42.034;25.834;2023-07-08T10:46:38;100160.13;;;28.82;66.88
9059;BME280;4564;42.034;25.834;2023-07-08T10:49:13;100162.03;;;29.36;68.10
9059;BME280;4564;42.034;25.834;2023-07-08T10:51:47;100165.47;;;29.55;67.22
9059;BME280;4564;42.034;25.834;2023-07-08T10:54:20;100162.41;;;29.29;67.28
9059;BME280;4564;42.034;25.834;2023-07-08T10:56:53;100161.28;;;29.30;68.78
9059;BME280;4564;42.034;25.834;2023-07-08T10:59:27;100162.53;;;29.24;69.94
9059;BME280;4564;42.034;25.834;2023-07-08T11:04:49;100167.19;;;29.65;65.43
9059;BME280;4564;42.034;25.834;2023-07-08T11:07:26;100161.72;;;29.59;63.62
9059;BME280;4564;42.034;25.834;2023-07-08T11:09:56;100163.50;;;29.78;63.78
9059;BME280;4564;42.034;25.834;2023-07-08T11:12:25;100154.41;;;29.72;65.34
9059;BME280;4564;42.034;25.834;2023-07-08T11:14:58;100163.22;;;29.43;65.13
9059;BME280;4564;42.034;25.834;2023-07-08T11:17:26;100184.06;;;29.10;63.94
9059;BME280;4564;42.034;25.834;2023-07-08T11:19:57;100207.47;;;28.59;69.51
9059;BME280;4564;42.034;25.834;2023-07-08T11:22:26;100215.84;;;26.14;87.11
9059;BME280;4564;42.034;25.834;2023-07-08T11:24:55;100231.72;;;23.91;100.00
9059;BME280;4564;42.034;25.834;2023-07-08T11:27:24;100236.38;;;22.82;100.00
9059;BME280;4564;42.034;25.834;2023-07-08T11:29:53;100233.28;;;22.32;100.00
9059;BME280;4564;42.034;25.834;2023-07-08T11:32:23;100228.38;;;22.44;100.00
9059;BME280;4564;42.034;25.834;2023-07-08T11:34:52;100223.47;;;22.56;100.00
9059;BME280;4564;42.034;25.834;2023-07-08T11:37:20;100215.06;;;22.41;100.00
9059;BME280;4564;42.034;25.834;2023-07-08T11:39:52;100214.31;;;22.50;100.00
9059;BME280;4564;42.034;25.834;2023-07-08T11:42:20;100225.25;;;22.72;100.00
9059;BME280;4564;42.034;25.834;2023-07-08T11:44:50;100213.72;;;22.90;100.00
9059;BME280;4564;42.034;25.834;2023-07-08T11:47:19;100220.34;;;22.89;100.00
9059;BME280;4564;42.034;25.834;2023-07-08T11:49:49;100216.44;;;22.80;100.00
9059;BME280;4564;42.034;25.834;2023-07-08T11:52:18;100205.16;;;22.92;100.00
9059;BME280;4564;42.034;25.834;2023-07-08T11:54:46;100212.66;;;23.07;100.00
9059;BME280;4564;42.034;25.834;2023-07-08T11:57:17;100198.34;;;23.35;100.00
9059;BME280;4564;42.034;25.834;2023-07-08T11:59:43;100202.28;;;23.54;100.00
9059;BME280;4564;42.034;25.834;2023-07-08T12:02:13;100200.66;;;23.73;100.00
9059;BME280;4564;42.034;25.834;2023-07-08T12:04:56;100200.66;;;23.94;100.00
9059;BME280;4564;42.034;25.834;2023-07-08T12:07:30;100206.19;;;24.14;100.00
9059;BME280;4564;42.034;25.834;2023-07-08T12:09:57;100204.56;;;24.23;100.00
9059;BME280;4564;42.034;25.834;2023-07-08T12:12:28;100206.22;;;24.24;100.00
9059;BME280;4564;42.034;25.834;2023-07-08T12:14:58;100206.50;;;24.22;100.00
9059;BME280;4564;42.034;25.834;2023-07-08T12:17:26;100194.78;;;24.61;100.00
9059;BME280;4564;42.034;25.834;2023-07-08T12:19:53;100197.19;;;24.83;100.00
9059;BME280;4564;42.034;25.834;2023-07-08T12:22:23;100201.63;;;24.89;100.00
9059;BME280;4564;42.034;25.834;2023-07-08T12:24:50;100206.63;;;24.87;100.00
9059;BME280;4564;42.034;25.834;2023-07-08T12:27:16;100209.41;;;24.92;100.00
9059;BME280;4564;42.034;25.834;2023-07-08T12:29:43;100215.97;;;25.11;100.00
9059;BME280;4564;42.034;25.834;2023-07-08T12:32:11;100220.06;;;25.24;100.00
9059;BME280;4564;42.034;25.834;2023-07-08T12:34:38;100219.88;;;25.05;98.28
9059;BME280;4564;42.034;25.834;2023-07-08T12:37:08;100224.63;;;24.99;100.00
9059;BME280;4564;42.034;25.834;2023-07-08T12:39:37;100220.44;;;25.07;100.00
9059;BME280;4564;42.034;25.834;2023-07-08T12:42:07;100224.38;;;24.96;100.00
9059;BME280;4564;42.034;25.834;2023-07-08T12:44:34;100232.19;;;24.68;100.00
9059;BME280;4564;42.034;25.834;2023-07-08T12:47:03;100230.03;;;24.35;100.00
9059;BME280;4564;42.034;25.834;2023-07-08T12:49:29;100236.97;;;23.87;98.83
9059;BME280;4564;42.034;25.834;2023-07-08T12:51:58;100226.97;;;23.66;94.33
9059;BME280;4564;42.034;25.834;2023-07-08T12:54:24;100238.31;;;23.49;96.20
9059;BME280;4564;42.034;25.834;2023-07-08T12:56:55;100228.84;;;23.45;97.85
9059;BME280;4564;42.034;25.834;2023-07-08T12:59:22;100226.13;;;23.65;97.82
9059;BME280;4564;42.034;25.834;2023-07-08T13:01:49;100218.41;;;23.88;99.12
9059;BME280;4564;42.034;25.834;2023-07-08T13:04:17;100209.00;;;24.29;97.64